createdAt,value
2022-11-01T00:01:39.642Z,9.6
2022-11-01T00:03:41.525Z,8.7
2022-11-01T00:05:46.600Z,13.8
2022-11-01T00:07:48.622Z,10
2022-11-01T00:09:50.634Z,8.6
2022-11-01T00:11:52.656Z,10.1
2022-11-01T00:15:56.677Z,9.4
2022-11-01T00:20:03.824Z,9.8
2022-11-01T00:22:05.784Z,9.3
2022-11-01T00:26:09.793Z,8.1
2022-11-01T00:28:11.826Z,10.3
2022-11-01T00:30:13.821Z,9.7
2022-11-01T00:34:20.920Z,9.1
2022-11-01T00:36:22.948Z,8.7
2022-11-01T00:38:24.944Z,8.9
2022-11-01T00:40:26.959Z,9.3
2022-11-01T00:42:28.972Z,9.5
2022-11-01T00:44:30.977Z,7.9
2022-11-01T00:46:32.995Z,9.9
2022-11-01T00:48:38.072Z,9.3
2022-11-01T00:50:40.076Z,7.7
2022-11-01T00:52:42.092Z,10.1
2022-11-01T00:53:44.623Z,9.9
2022-11-01T00:55:46.635Z,9.6
2022-11-01T00:57:48.636Z,8.8
2022-11-01T00:59:50.697Z,9.2
2022-11-01T01:01:55.887Z,9.7
2022-11-01T01:03:57.738Z,9.4
2022-11-01T01:05:59.736Z,10.3
2022-11-01T01:08:01.742Z,9.1
2022-11-01T01:10:03.726Z,9.3
2022-11-01T01:12:05.767Z,8.6
2022-11-01T01:14:07.743Z,8.9
2022-11-01T01:16:12.830Z,8.3
2022-11-01T01:18:14.824Z,8.2
2022-11-01T01:20:16.856Z,9.8
2022-11-01T01:22:18.843Z,9.5
2022-11-01T01:24:20.853Z,8.9
2022-11-01T01:26:22.871Z,10
2022-11-01T01:28:24.867Z,8.5
2022-11-01T01:30:29.938Z,8.5
2022-11-01T01:32:31.956Z,7.1
2022-11-01T01:34:33.964Z,7.7
2022-11-01T01:36:35.979Z,7.7
2022-11-01T01:38:37.991Z,8.1
2022-11-01T01:40:41.231Z,9.8
2022-11-01T01:42:42.020Z,7.8
2022-11-01T01:44:47.084Z,7.9
2022-11-01T01:46:49.108Z,8.2
2022-11-01T01:48:51.100Z,8
2022-11-01T01:52:01.172Z,9.1
2022-11-01T01:53:57.666Z,7.8
2022-11-01T01:55:59.677Z,8.8
2022-11-01T01:58:04.751Z,9.7
2022-11-01T02:00:06.738Z,9.4
2022-11-01T02:02:08.801Z,8.4
2022-11-01T02:04:10.784Z,8.5
2022-11-01T02:06:12.880Z,8.5
2022-11-01T02:08:14.776Z,7.8
2022-11-01T02:10:16.776Z,7.6
2022-11-01T02:12:21.880Z,8.2
2022-11-01T02:14:23.866Z,8.7
2022-11-01T02:16:25.868Z,7.5
2022-11-01T02:18:27.872Z,8.5
2022-11-01T02:20:29.890Z,7.5
2022-11-01T02:22:31.932Z,8.1
2022-11-01T02:24:34.052Z,8
2022-11-01T02:26:39.099Z,9
2022-11-01T02:28:41.117Z,8.6
2022-11-01T02:30:43.107Z,7.6
2022-11-01T02:32:45.138Z,7.2
2022-11-01T02:34:47.137Z,7
2022-11-01T02:36:49.148Z,7.4
2022-11-01T02:38:51.149Z,7.5
2022-11-01T02:42:58.554Z,7.3
2022-11-01T02:45:00.270Z,6.6
2022-11-01T02:47:23.112Z,6.7
2022-11-01T02:49:25.126Z,7.6
2022-11-01T02:51:27.117Z,6.5
2022-11-01T02:55:34.408Z,6.3
2022-11-01T02:57:36.221Z,8
2022-11-01T03:05:44.254Z,8
2022-11-01T03:09:51.327Z,6.6
2022-11-01T03:11:53.303Z,4.4
2022-11-01T03:13:55.312Z,6.2
2022-11-01T03:15:57.330Z,6.7
2022-11-01T03:17:59.336Z,6.2
2022-11-01T03:20:01.348Z,5.9
2022-11-01T03:22:07.902Z,6.8
2022-11-01T03:24:09.890Z,5.6
2022-11-01T03:26:11.905Z,5.8
2022-11-01T03:28:13.908Z,7
2022-11-01T03:30:15.909Z,8.6
2022-11-01T03:32:17.911Z,6
2022-11-01T03:34:19.916Z,6.2
2022-11-01T03:36:24.998Z,6.7
2022-11-01T03:38:26.991Z,6.3
2022-11-01T03:40:29.003Z,6.4
2022-11-01T03:43:33.528Z,6.5
2022-11-01T03:45:35.562Z,6.9
2022-11-01T03:47:37.573Z,6.1
2022-11-01T03:49:42.598Z,6.2
2022-11-01T03:51:44.616Z,6
2022-11-01T03:53:46.629Z,6.5
2022-11-01T03:55:48.620Z,6.8
2022-11-01T03:57:50.628Z,6.2
2022-11-01T03:59:52.634Z,5.7
2022-11-01T04:01:54.827Z,5.3
2022-11-01T04:03:59.709Z,4.8
2022-11-01T04:06:01.713Z,5.8
2022-11-01T04:08:03.934Z,6.3
2022-11-01T04:10:05.708Z,5.7
2022-11-01T04:24:22.816Z,3.3
2022-11-01T04:26:24.796Z,4.3
2022-11-01T04:32:33.882Z,3.6
2022-11-01T04:34:35.873Z,4.2
2022-11-01T04:36:37.873Z,3.3
2022-11-01T04:41:44.396Z,3.1
2022-11-01T04:43:46.403Z,3.7
2022-11-01T04:47:53.463Z,3
2022-11-01T04:49:55.460Z,3.3
2022-11-01T04:51:57.464Z,3.6
2022-11-01T04:53:59.456Z,2.6
2022-11-01T04:58:03.465Z,2
2022-11-01T05:00:08.549Z,1.9
2022-11-01T05:06:14.505Z,1.8
2022-11-01T05:08:16.502Z,1.6
2022-11-01T05:10:18.524Z,1.8
2022-11-01T05:14:25.588Z,1.9
2022-11-01T05:18:29.568Z,1.3
2022-11-01T05:20:31.575Z,1.1
2022-11-01T05:22:33.537Z,1
2022-11-01T05:24:35.607Z,0.7
2022-11-01T05:26:37.535Z,0.7
2022-11-01T05:28:42.624Z,0.8
2022-11-01T05:30:44.626Z,1.6
2022-11-01T05:32:46.617Z,1.1
2022-11-01T05:37:53.159Z,1.7
2022-11-01T05:46:04.253Z,0.8
2022-11-01T05:48:06.257Z,1.3
2022-11-01T05:50:08.261Z,1
2022-11-01T05:52:10.274Z,1
2022-11-01T05:54:12.266Z,1.1
2022-11-01T05:56:17.348Z,1.1
2022-11-01T05:58:19.348Z,1.2
2022-11-01T06:00:21.367Z,2.2
2022-11-01T06:02:23.462Z,1.2
2022-11-01T06:04:25.372Z,1.3
2022-11-01T06:06:27.393Z,1.4
2022-11-01T06:08:29.418Z,1.5
2022-11-01T06:10:34.486Z,1.2
2022-11-01T06:12:36.499Z,1.1
2022-11-01T06:14:38.519Z,1.2
2022-11-01T06:16:40.534Z,1.2
2022-11-01T06:18:42.554Z,0.9
2022-11-01T06:20:44.573Z,1.1
2022-11-01T06:26:53.678Z,1.4
2022-11-01T06:31:18.311Z,1.1
2022-11-01T06:33:20.337Z,1.1
2022-11-01T06:35:22.367Z,1.2
2022-11-01T06:37:27.437Z,1.1
2022-11-01T06:39:29.445Z,1.7
2022-11-01T06:41:31.500Z,1.4
2022-11-01T06:43:33.474Z,1.5
2022-11-01T06:45:35.506Z,1
2022-11-01T06:49:39.545Z,0.8
2022-11-01T06:51:44.631Z,1.4
2022-11-01T06:53:46.661Z,1.2
2022-11-01T06:59:52.704Z,0.8
2022-11-01T07:01:54.901Z,1.1
2022-11-01T07:03:56.758Z,1.2
2022-11-01T07:08:04.215Z,0.4
2022-11-01T07:10:05.873Z,1
2022-11-01T07:12:07.914Z,1.8
2022-11-01T07:14:09.927Z,1.2
2022-11-01T07:16:11.942Z,1.3
2022-11-01T07:18:13.967Z,2.3
2022-11-01T07:20:19.045Z,1
2022-11-01T07:22:21.081Z,0.9
2022-11-01T07:24:23.078Z,1.5
2022-11-01T07:25:25.698Z,1.3
2022-11-01T07:27:27.657Z,2
2022-11-01T07:29:29.677Z,2
2022-11-01T07:31:31.695Z,2.2
2022-11-01T07:33:36.784Z,1
2022-11-01T07:35:38.804Z,0.7
2022-11-01T07:37:40.825Z,1.5
2022-11-01T07:39:42.847Z,1.5
2022-11-01T07:41:44.851Z,2.1
2022-11-01T07:43:46.883Z,0.6
2022-11-01T07:47:53.970Z,1.9
2022-11-01T07:49:56.011Z,1.9
2022-11-01T07:52:02.677Z,2.1
2022-11-01T07:58:04.577Z,2
2022-11-01T08:00:06.132Z,2.5
2022-11-01T08:04:13.219Z,1.5
2022-11-01T08:10:19.288Z,2.1
2022-11-01T08:12:21.313Z,1.9
2022-11-01T08:14:23.361Z,2.3
2022-11-01T08:16:28.458Z,1.3
2022-11-01T08:18:30.464Z,2.4
2022-11-01T08:20:32.500Z,1.3
2022-11-01T08:21:35.046Z,2
2022-11-01T08:23:37.076Z,2.1
2022-11-01T08:25:39.090Z,2.7
2022-11-01T08:27:41.094Z,1.9
2022-11-01T08:29:46.202Z,2.1
2022-11-01T08:31:48.205Z,2.4
2022-11-01T08:33:50.222Z,1.9
2022-11-01T08:35:52.391Z,1.6
2022-11-01T08:37:54.274Z,2.9
2022-11-01T08:39:56.355Z,1.9
2022-11-01T08:41:58.318Z,1.7
2022-11-01T08:44:03.408Z,1.5
2022-11-01T08:46:05.403Z,2
2022-11-01T08:48:07.442Z,1.5
2022-11-01T08:50:11.310Z,2
2022-11-01T08:52:11.492Z,2.3
2022-11-01T08:54:13.492Z,2.3
2022-11-01T08:56:15.556Z,2.2
2022-11-01T08:58:20.596Z,2.1
2022-11-01T09:00:22.645Z,2.1
2022-11-01T09:02:24.810Z,1.8
2022-11-01T09:04:26.649Z,2
2022-11-01T09:06:32.357Z,0.9
2022-11-01T09:08:30.689Z,1.6
2022-11-01T09:10:32.695Z,2
2022-11-01T09:14:41.280Z,2
2022-11-01T09:16:43.299Z,1
2022-11-01T09:17:45.818Z,2.1
2022-11-01T09:19:47.884Z,2.8
2022-11-01T09:23:51.894Z,3.6
2022-11-01T09:25:57.097Z,2.3
2022-11-01T09:27:59.023Z,2.4
2022-11-01T09:30:01.028Z,1.8
2022-11-01T09:32:03.056Z,1.3
2022-11-01T09:34:05.054Z,1.4
2022-11-01T09:36:07.066Z,2.8
2022-11-01T09:38:09.086Z,2.3
2022-11-01T09:40:14.175Z,3.5
2022-11-01T09:42:16.197Z,2.3
2022-11-01T09:44:18.213Z,1.8
2022-11-01T09:46:20.220Z,1.6
2022-11-01T09:48:22.233Z,2
2022-11-01T09:50:24.243Z,3.4
2022-11-01T09:52:26.288Z,1.9
2022-11-01T09:54:31.349Z,1.8
2022-11-01T09:56:33.376Z,2.4
2022-11-01T09:58:35.366Z,2.8
2022-11-01T10:00:37.380Z,2.6
2022-11-01T10:02:40.046Z,2.8
2022-11-01T10:04:42.046Z,3.8
2022-11-01T10:06:44.074Z,2.1
2022-11-01T10:08:49.165Z,1.5
2022-11-01T10:10:51.162Z,2.2
2022-11-01T10:12:53.183Z,2
2022-11-01T10:15:16.010Z,2.1
2022-11-01T10:17:18.009Z,3.1
2022-11-01T10:19:20.017Z,3.1
2022-11-01T10:21:27.349Z,3.2
2022-11-01T10:23:27.110Z,2.8
2022-11-01T10:25:29.134Z,2.3
2022-11-01T10:27:34.617Z,2.5
2022-11-01T10:29:33.135Z,1.5
2022-11-01T10:31:35.165Z,2.1
2022-11-01T10:33:37.171Z,2.5
2022-11-01T10:35:42.246Z,2
2022-11-01T10:37:52.384Z,3
2022-11-01T10:41:48.266Z,2.5
2022-11-01T10:43:50.280Z,1.6
2022-11-01T10:45:52.281Z,1.6
2022-11-01T10:47:54.306Z,1.2
2022-11-01T10:50:06.148Z,3.1
2022-11-01T10:52:01.362Z,2.2
2022-11-01T10:56:05.363Z,3.3
2022-11-01T11:00:09.383Z,2.6
2022-11-01T11:08:20.469Z,2
2022-11-01T11:09:22.993Z,1.7
2022-11-01T11:13:27.005Z,2.1
2022-11-01T11:17:34.102Z,1.7
2022-11-01T11:19:36.078Z,2.1
2022-11-01T11:21:38.082Z,1.4
2022-11-01T11:23:40.087Z,1.8
2022-11-01T11:25:42.095Z,2.5
2022-11-01T11:27:44.075Z,2.5
2022-11-01T11:29:46.078Z,1.8
2022-11-01T11:31:51.998Z,2.5
2022-11-01T11:33:53.996Z,2
2022-11-01T11:35:56.184Z,2.2
2022-11-01T11:37:57.994Z,1.8
2022-11-01T11:40:00.002Z,2.7
2022-11-01T11:42:02.007Z,1.4
2022-11-01T11:44:04.008Z,1.5
2022-11-01T11:46:09.070Z,3.3
2022-11-01T11:48:11.043Z,1.7
2022-11-01T11:50:13.063Z,2.1
2022-11-01T11:52:15.037Z,2.5
2022-11-01T11:54:17.058Z,2.1
2022-11-01T11:56:19.058Z,2.4
2022-11-01T11:58:21.040Z,2.3
2022-11-01T12:00:26.118Z,3.2
2022-11-01T12:02:28.151Z,2.4
2022-11-01T12:04:30.098Z,2.5
2022-11-01T12:05:32.628Z,1.6
2022-11-01T12:07:34.630Z,1.7
2022-11-01T12:09:36.602Z,1.6
2022-11-01T12:11:38.606Z,2.2
2022-11-01T12:13:43.654Z,1.8
2022-11-01T12:15:45.658Z,1.5
2022-11-01T12:17:47.630Z,2
2022-11-01T12:19:49.626Z,1.8
2022-11-01T12:21:51.614Z,2.2
2022-11-01T12:23:53.606Z,1.7
2022-11-01T12:25:55.589Z,1.9
2022-11-01T12:28:00.975Z,2.3
2022-11-01T12:30:02.749Z,2.3
2022-11-01T12:32:04.644Z,2.4
2022-11-01T12:38:10.584Z,1.8
2022-11-01T12:40:12.585Z,1.8
2022-11-01T12:44:19.673Z,2.8
2022-11-01T12:46:21.618Z,1.9
2022-11-01T12:48:23.598Z,1.7
2022-11-01T12:50:25.595Z,2.6
2022-11-01T12:56:34.633Z,2.1
2022-11-01T12:58:36.624Z,4
2022-11-01T13:00:38.620Z,1.4
2022-11-01T13:01:41.212Z,1.7
2022-11-01T13:03:43.141Z,1.3
2022-11-01T13:05:45.121Z,1.9
2022-11-01T13:07:47.123Z,1.7
2022-11-01T13:09:52.180Z,2.4
2022-11-01T13:11:54.187Z,2.3
2022-11-01T13:13:56.145Z,1.9
2022-11-01T13:15:58.264Z,1.4
2022-11-01T13:20:38.156Z,2.5
2022-11-01T13:22:04.112Z,1.7
2022-11-01T13:24:09.208Z,1.6
2022-11-01T13:26:11.179Z,1.4
2022-11-01T13:28:13.183Z,2.8
2022-11-01T13:30:15.169Z,1.7
2022-11-01T13:32:17.169Z,1.1
2022-11-01T13:34:19.149Z,1.6
2022-11-01T13:36:21.157Z,2.1
2022-11-01T13:38:26.224Z,2.1
2022-11-01T13:40:28.215Z,2.7
2022-11-01T13:42:30.232Z,2.2
2022-11-01T13:44:32.205Z,1.7
2022-11-01T13:48:36.191Z,0.9
2022-11-01T13:50:38.197Z,1.2
2022-11-01T13:52:43.268Z,1
2022-11-01T13:54:45.244Z,1.6
2022-11-01T13:56:47.261Z,1.5
2022-11-01T13:59:03.977Z,1.5
2022-11-01T14:01:06.069Z,1
2022-11-01T14:03:07.964Z,2
2022-11-01T14:05:13.013Z,1.4
2022-11-01T14:07:15.023Z,1.7
2022-11-01T14:09:17.016Z,1.5
2022-11-01T14:11:19.008Z,1.3
2022-11-01T14:13:20.995Z,1.2
2022-11-01T14:15:22.998Z,2.1
2022-11-01T14:19:30.079Z,2
2022-11-01T14:23:34.054Z,1.7
2022-11-01T14:25:36.066Z,1.6
2022-11-01T14:27:38.067Z,1.4
2022-11-01T14:29:40.062Z,2.4
2022-11-01T14:31:42.060Z,1.9
2022-11-01T14:33:47.137Z,1
2022-11-01T14:35:49.107Z,1.5
2022-11-01T14:37:51.110Z,1.8
2022-11-01T14:39:53.116Z,1.9
2022-11-01T14:43:57.163Z,1.2
2022-11-01T14:45:59.120Z,2.9
2022-11-01T14:48:04.567Z,1.4
2022-11-01T14:50:06.199Z,1.5
2022-11-01T14:52:08.191Z,2.4
2022-11-01T14:53:10.710Z,1.3
2022-11-01T14:55:13.660Z,1.8
2022-11-01T14:57:14.725Z,1.6
2022-11-01T14:59:16.721Z,1.7
2022-11-01T15:01:21.979Z,1
2022-11-01T15:03:25.292Z,1
2022-11-01T15:07:31.059Z,1.5
2022-11-01T15:09:31.246Z,1.2
2022-11-01T15:11:33.262Z,1.3
2022-11-01T15:13:35.264Z,2.2
2022-11-01T15:15:40.320Z,1.8
2022-11-01T15:17:42.332Z,3.3
2022-11-01T15:19:44.345Z,1.5
2022-11-01T15:21:47.638Z,1.7
2022-11-01T15:23:48.344Z,2.6
2022-11-01T15:25:50.346Z,1.5
2022-11-01T15:29:57.561Z,1.4
2022-11-01T15:31:59.577Z,2
2022-11-01T15:34:01.588Z,1.3
2022-11-01T15:36:03.574Z,2.2
2022-11-01T15:38:05.572Z,1.4
2022-11-01T15:40:07.620Z,1.1
2022-11-01T15:42:09.612Z,1.8
2022-11-01T15:44:14.677Z,1.3
2022-11-01T15:46:16.679Z,1.3
2022-11-01T15:48:18.708Z,1.5
2022-11-01T15:49:21.262Z,1.5
2022-11-01T15:53:25.272Z,1.6
2022-11-01T15:55:27.273Z,1.8
2022-11-01T16:01:36.485Z,1.9
2022-11-01T16:03:38.423Z,2.6
2022-11-01T16:05:40.441Z,1.6
2022-11-01T16:09:44.490Z,1.6
2022-11-01T16:11:49.579Z,1.6
2022-11-01T16:17:59.062Z,1.6
2022-11-01T16:21:59.696Z,1.8
2022-11-01T16:24:06.834Z,1.7
2022-11-01T16:28:08.832Z,1.6
2022-11-01T16:30:10.829Z,2.2
2022-11-01T16:34:14.895Z,2.1
2022-11-01T16:38:18.926Z,2.1
2022-11-01T16:40:24.016Z,3.7
2022-11-01T16:42:26.049Z,2
2022-11-01T16:44:28.055Z,1.9
2022-11-01T16:45:30.595Z,2.2
2022-11-01T16:51:36.681Z,2.1
2022-11-01T16:53:41.775Z,3.1
2022-11-01T16:55:43.786Z,1.9
2022-11-01T16:57:45.806Z,1.9
2022-11-01T16:59:47.840Z,2.4
2022-11-01T17:01:49.987Z,1.9
2022-11-01T17:03:51.898Z,1.7
2022-11-01T17:05:56.199Z,1.5
2022-11-01T17:07:58.977Z,1.8
2022-11-01T17:10:00.993Z,0.9
2022-11-01T17:12:03.032Z,1.7
2022-11-01T17:14:05.044Z,1.9
2022-11-01T17:16:07.054Z,1.5
2022-11-01T17:18:09.088Z,2
2022-11-01T17:20:11.102Z,3.4
2022-11-01T17:22:16.199Z,2.2
2022-11-01T17:24:18.202Z,1.6
2022-11-01T17:26:20.235Z,2.2
2022-11-01T17:28:22.245Z,3.7
2022-11-01T17:30:24.268Z,2.6
2022-11-01T17:32:26.286Z,1.6
2022-11-01T17:34:28.334Z,1.9
2022-11-01T17:38:35.420Z,2.4
2022-11-01T17:40:37.423Z,1.7
2022-11-01T17:42:59.940Z,2.3
2022-11-01T17:44:56.039Z,2.9
2022-11-01T17:46:58.244Z,1.6
2022-11-01T17:49:03.142Z,2.1
2022-11-01T17:51:05.150Z,2
2022-11-01T17:53:07.172Z,2.1
2022-11-01T17:55:09.190Z,3.7
2022-11-01T17:57:11.219Z,2.6
2022-11-01T17:59:13.233Z,2.1
2022-11-01T18:01:15.324Z,1.8
2022-11-01T18:03:20.349Z,2.1
2022-11-01T18:05:22.369Z,2
2022-11-01T18:07:24.374Z,2.4
2022-11-01T18:09:26.405Z,2.6
2022-11-01T18:11:28.413Z,1.7
2022-11-01T18:13:30.433Z,1.8
2022-11-01T18:15:32.457Z,2.3
2022-11-01T18:17:37.592Z,4.8
2022-11-01T18:19:39.610Z,2
2022-11-01T18:21:41.632Z,2.3
2022-11-01T18:23:43.666Z,2.1
2022-11-01T18:25:45.687Z,1.7
2022-11-01T18:27:47.724Z,1.1
2022-11-01T18:29:49.734Z,1.5
2022-11-01T18:31:54.816Z,1.9
2022-11-01T18:33:56.851Z,2.9
2022-11-01T18:35:58.882Z,1.7
2022-11-01T18:37:01.439Z,1.9
2022-11-01T18:39:03.442Z,1.7
2022-11-01T18:41:08.128Z,2.8
2022-11-01T18:43:07.490Z,3.5
2022-11-01T18:45:12.596Z,2.2
2022-11-01T18:47:14.621Z,2.7
2022-11-01T18:49:16.645Z,2.4
2022-11-01T18:51:18.669Z,2.3
2022-11-01T18:53:20.705Z,1.9
2022-11-01T18:55:22.788Z,2.3
2022-11-01T18:57:24.885Z,2.2
2022-11-01T18:59:29.830Z,2.9
2022-11-01T19:01:32.262Z,2.1
2022-11-01T19:03:33.881Z,2.3
2022-11-01T19:05:35.911Z,2.7
2022-11-01T19:08:04.968Z,2.1
2022-11-01T19:09:39.970Z,2.1
2022-11-01T19:11:41.997Z,1.8
2022-11-01T19:13:47.081Z,1.6
2022-11-01T19:15:53.937Z,2.3
2022-11-01T19:17:51.149Z,2.1
2022-11-01T19:19:53.168Z,2.7
2022-11-01T19:21:55.198Z,2.3
2022-11-01T19:23:57.226Z,1.7
2022-11-01T19:25:59.242Z,3.2
2022-11-01T19:28:04.592Z,2
2022-11-01T19:30:06.392Z,1.1
2022-11-01T19:32:08.405Z,2.1
2022-11-01T19:33:10.940Z,2.4
2022-11-01T19:35:14.317Z,2.4
2022-11-01T19:37:14.994Z,1.9
2022-11-01T19:39:17.016Z,2.1
2022-11-01T19:41:22.112Z,1.1
2022-11-01T19:43:24.135Z,1.9
2022-11-01T19:49:30.207Z,2.4
2022-11-01T19:59:43.405Z,2.3
2022-11-01T20:05:49.487Z,2.4
2022-11-01T20:07:51.547Z,1.4
2022-11-01T20:09:58.863Z,2.6
2022-11-01T20:11:58.632Z,2.7
2022-11-01T20:14:00.665Z,3.2
2022-11-01T20:16:02.707Z,2.5
2022-11-01T20:18:05.034Z,2.2
2022-11-01T20:20:06.738Z,1.7
2022-11-01T20:22:08.762Z,2.1
2022-11-01T20:24:14.333Z,2.3
2022-11-01T20:26:16.343Z,2
2022-11-01T20:28:18.962Z,2.1
2022-11-01T20:29:21.503Z,2.4
2022-11-01T20:31:23.534Z,2.8
2022-11-01T20:35:27.575Z,2.3
2022-11-01T20:37:32.651Z,2.1
2022-11-01T20:39:34.675Z,2.9
2022-11-01T20:41:36.733Z,1.9
2022-11-01T20:43:38.742Z,1.8
2022-11-01T20:45:40.784Z,2
2022-11-01T20:47:46.233Z,1.9
2022-11-01T20:49:44.824Z,2
2022-11-01T20:51:49.908Z,2.3
2022-11-01T20:53:51.936Z,3
2022-11-01T20:55:55.492Z,2.8
2022-11-01T20:57:57.488Z,2.3
2022-11-01T21:02:01.573Z,2.5
2022-11-01T21:08:10.681Z,3.1
2022-11-01T21:10:12.702Z,2.5
2022-11-01T21:12:14.736Z,1.5
2022-11-01T21:14:16.769Z,3
2022-11-01T21:16:18.795Z,1.9
2022-11-01T21:18:20.834Z,2.3
2022-11-01T21:20:25.909Z,2.5
2022-11-01T21:22:27.936Z,2
2022-11-01T21:24:29.977Z,2.3
2022-11-01T21:26:56.007Z,1.9
2022-11-01T21:28:54.913Z,2
2022-11-01T21:30:56.896Z,3.1
2022-11-01T21:33:01.978Z,1.2
2022-11-01T21:35:04.019Z,1.9
2022-11-01T21:39:08.058Z,2.1
2022-11-01T21:41:10.088Z,2.3
2022-11-01T21:43:12.118Z,1.7
2022-11-01T21:45:14.149Z,3.2
2022-11-01T21:47:19.257Z,3
2022-11-01T21:49:21.274Z,2.4
2022-11-01T21:51:23.316Z,2.2
2022-11-01T21:53:25.337Z,2.1
2022-11-01T21:55:27.368Z,2
2022-11-01T21:57:29.386Z,2.4
2022-11-01T21:59:31.432Z,2.7
2022-11-01T22:01:36.611Z,2.8
2022-11-01T22:05:40.561Z,2.3
2022-11-01T22:07:42.610Z,3.1
2022-11-01T22:09:44.631Z,2.1
2022-11-01T22:15:53.803Z,1.7
2022-11-01T22:17:55.792Z,2.1
2022-11-01T22:19:57.826Z,1.4
2022-11-01T22:21:00.353Z,1.9
2022-11-01T22:23:02.642Z,1.8
2022-11-01T22:25:04.417Z,1.4
2022-11-01T22:27:06.420Z,1.2
2022-11-01T22:29:11.527Z,1.4
2022-11-01T22:31:13.533Z,2
2022-11-01T22:33:15.580Z,2.2
2022-11-01T22:41:25.953Z,2.2
2022-11-01T22:43:28.779Z,1.2
2022-11-01T22:47:32.847Z,2
2022-11-01T22:49:34.872Z,1.6
2022-11-01T22:51:36.896Z,1.6
2022-11-01T22:53:38.939Z,1.5
2022-11-01T22:55:40.964Z,2.3
2022-11-01T22:57:46.046Z,3.1
2022-11-01T22:59:48.093Z,2.3
2022-11-01T23:01:50.157Z,1.4
2022-11-01T23:03:52.159Z,1.5
2022-11-01T23:05:54.183Z,2
2022-11-01T23:07:56.216Z,1.7
2022-11-01T23:12:03.346Z,2.3
2022-11-01T23:14:05.275Z,1.9
2022-11-01T23:16:07.311Z,2.6
2022-11-01T23:19:11.874Z,2.2
2022-11-01T23:21:13.926Z,2.2
2022-11-01T23:27:23.070Z,2.5
2022-11-01T23:29:25.099Z,3.2
2022-11-01T23:31:27.143Z,2
2022-11-01T23:33:29.140Z,1.9
2022-11-01T23:35:31.178Z,3.2
2022-11-01T23:37:33.212Z,2.8
2022-11-01T23:39:38.295Z,1.8
2022-11-01T23:41:40.314Z,2.6
2022-11-01T23:43:42.362Z,2.6
2022-11-01T23:45:44.374Z,2
2022-11-01T23:47:46.425Z,2.6
2022-11-01T23:49:48.421Z,3
2022-11-01T23:51:50.462Z,3
2022-11-01T23:53:55.554Z,3.4
2022-11-01T23:55:57.575Z,3.3
2022-11-01T23:57:59.603Z,2.9
